sensor_id;sensor_type;location;lat;lon;timestamp;P1;durP1;ratioP1;P2;durP2;ratioP2
39956;SDS011;48483;44.640;7.494;2023-03-23T00:01:05;30.45;;;23.27;;
39956;SDS011;48483;44.640;7.494;2023-03-23T00:03:34;30.27;;;23.02;;
39956;SDS011;48483;44.640;7.494;2023-03-23T00:06:01;31.70;;;21.83;;
39956;SDS011;48483;44.640;7.494;2023-03-23T00:08:32;27.63;;;21.52;;
39956;SDS011;48483;44.640;7.494;2023-03-23T00:10:59;32.03;;;22.77;;
39956;SDS011;48483;44.640;7.494;2023-03-23T00:13:28;27.27;;;21.25;;
39956;SDS011;48483;44.640;7.494;2023-03-23T00:15:55;29.95;;;23.50;;
39956;SDS011;48483;44.640;7.494;2023-03-23T00:18:23;28.42;;;22.20;;
39956;SDS011;48483;44.640;7.494;2023-03-23T00:20:52;31.17;;;22.98;;
39956;SDS011;48483;44.640;7.494;2023-03-23T00:23:21;28.40;;;22.13;;
39956;SDS011;48483;44.640;7.494;2023-03-23T00:25:50;30.08;;;21.67;;
39956;SDS011;48483;44.640;7.494;2023-03-23T00:28:24;27.83;;;21.55;;
39956;SDS011;48483;44.640;7.494;2023-03-23T00:30:56;29.52;;;22.98;;
39956;SDS011;48483;44.640;7.494;2023-03-23T00:33:24;27.90;;;21.75;;
39956;SDS011;48483;44.640;7.494;2023-03-23T00:35:53;28.67;;;22.77;;
39956;SDS011;48483;44.640;7.494;2023-03-23T00:38:21;28.10;;;22.60;;
39956;SDS011;48483;44.640;7.494;2023-03-23T00:40:50;26.17;;;22.42;;
39956;SDS011;48483;44.640;7.494;2023-03-23T00:43:18;26.85;;;22.77;;
39956;SDS011;48483;44.640;7.494;2023-03-23T00:45:45;29.55;;;23.70;;
39956;SDS011;48483;44.640;7.494;2023-03-23T00:48:18;28.42;;;22.23;;
39956;SDS011;48483;44.640;7.494;2023-03-23T00:50:46;29.60;;;23.63;;
39956;SDS011;48483;44.640;7.494;2023-03-23T00:53:14;28.98;;;23.70;;
39956;SDS011;48483;44.640;7.494;2023-03-23T00:55:42;28.15;;;23.20;;
39956;SDS011;48483;44.640;7.494;2023-03-23T00:58:09;26.50;;;22.67;;
39956;SDS011;48483;44.640;7.494;2023-03-23T01:00:37;30.48;;;23.73;;
39956;SDS011;48483;44.640;7.494;2023-03-23T01:03:05;26.30;;;22.52;;
39956;SDS011;48483;44.640;7.494;2023-03-23T01:05:33;27.42;;;22.55;;
39956;SDS011;48483;44.640;7.494;2023-03-23T01:08:02;28.33;;;23.45;;
39956;SDS011;48483;44.640;7.494;2023-03-23T01:10:32;30.00;;;22.63;;
39956;SDS011;48483;44.640;7.494;2023-03-23T01:12:59;32.28;;;21.90;;
39956;SDS011;48483;44.640;7.494;2023-03-23T01:15:27;27.05;;;21.83;;
39956;SDS011;48483;44.640;7.494;2023-03-23T01:17:54;28.60;;;21.65;;
39956;SDS011;48483;44.640;7.494;2023-03-23T01:20:22;29.55;;;22.48;;
39956;SDS011;48483;44.640;7.494;2023-03-23T01:22:50;31.45;;;23.60;;
39956;SDS011;48483;44.640;7.494;2023-03-23T01:25:17;29.15;;;22.10;;
39956;SDS011;48483;44.640;7.494;2023-03-23T01:27:45;27.48;;;21.38;;
39956;SDS011;48483;44.640;7.494;2023-03-23T01:30:12;28.13;;;22.20;;
39956;SDS011;48483;44.640;7.494;2023-03-23T01:32:39;31.45;;;21.75;;
39956;SDS011;48483;44.640;7.494;2023-03-23T01:35:07;30.60;;;22.58;;
39956;SDS011;48483;44.640;7.494;2023-03-23T01:37:36;29.73;;;24.98;;
39956;SDS011;48483;44.640;7.494;2023-03-23T01:40:03;28.92;;;23.58;;
39956;SDS011;48483;44.640;7.494;2023-03-23T01:42:33;28.90;;;22.40;;
39956;SDS011;48483;44.640;7.494;2023-03-23T01:48:09;31.63;;;22.92;;
39956;SDS011;48483;44.640;7.494;2023-03-23T01:50:43;30.98;;;22.92;;
39956;SDS011;48483;44.640;7.494;2023-03-23T01:53:14;32.42;;;24.67;;
39956;SDS011;48483;44.640;7.494;2023-03-23T01:55:42;32.00;;;25.02;;
39956;SDS011;48483;44.640;7.494;2023-03-23T01:58:14;33.53;;;24.92;;
39956;SDS011;48483;44.640;7.494;2023-03-23T02:00:44;31.65;;;22.75;;
39956;SDS011;48483;44.640;7.494;2023-03-23T02:03:12;30.63;;;24.10;;
39956;SDS011;48483;44.640;7.494;2023-03-23T02:05:40;33.90;;;25.08;;
39956;SDS011;48483;44.640;7.494;2023-03-23T02:08:18;33.42;;;23.83;;
39956;SDS011;48483;44.640;7.494;2023-03-23T02:10:46;28.42;;;22.88;;
39956;SDS011;48483;44.640;7.494;2023-03-23T02:13:13;30.95;;;23.85;;
39956;SDS011;48483;44.640;7.494;2023-03-23T02:15:50;31.45;;;25.35;;
39956;SDS011;48483;44.640;7.494;2023-03-23T02:18:28;32.72;;;23.90;;
39956;SDS011;48483;44.640;7.494;2023-03-23T02:27:49;31.50;;;23.52;;
39956;SDS011;48483;44.640;7.494;2023-03-23T02:30:56;33.95;;;24.05;;
39956;SDS011;48483;44.640;7.494;2023-03-23T02:33:43;31.48;;;24.13;;
39956;SDS011;48483;44.640;7.494;2023-03-23T02:36:18;31.38;;;24.05;;
39956;SDS011;48483;44.640;7.494;2023-03-23T02:38:53;31.25;;;24.40;;
39956;SDS011;48483;44.640;7.494;2023-03-23T02:41:27;35.03;;;25.35;;
39956;SDS011;48483;44.640;7.494;2023-03-23T02:43:57;35.50;;;25.73;;
39956;SDS011;48483;44.640;7.494;2023-03-23T02:46:27;32.70;;;24.92;;
39956;SDS011;48483;44.640;7.494;2023-03-23T02:48:56;37.03;;;24.58;;
39956;SDS011;48483;44.640;7.494;2023-03-23T02:51:24;34.63;;;24.20;;
39956;SDS011;48483;44.640;7.494;2023-03-23T02:53:53;37.35;;;26.25;;
39956;SDS011;48483;44.640;7.494;2023-03-23T02:56:22;35.58;;;25.75;;
39956;SDS011;48483;44.640;7.494;2023-03-23T02:58:52;31.77;;;25.00;;
39956;SDS011;48483;44.640;7.494;2023-03-23T03:04:15;34.25;;;25.67;;
39956;SDS011;48483;44.640;7.494;2023-03-23T03:06:47;34.00;;;24.98;;
39956;SDS011;48483;44.640;7.494;2023-03-23T03:09:23;34.42;;;26.35;;
39956;SDS011;48483;44.640;7.494;2023-03-23T03:11:58;33.75;;;24.48;;
39956;SDS011;48483;44.640;7.494;2023-03-23T03:14:31;38.22;;;24.20;;
39956;SDS011;48483;44.640;7.494;2023-03-23T03:17:05;34.20;;;24.75;;
39956;SDS011;48483;44.640;7.494;2023-03-23T03:19:38;33.83;;;25.67;;
39956;SDS011;48483;44.640;7.494;2023-03-23T03:22:08;36.25;;;25.52;;
39956;SDS011;48483;44.640;7.494;2023-03-23T03:24:40;33.33;;;24.90;;
39956;SDS011;48483;44.640;7.494;2023-03-23T03:27:11;34.08;;;24.27;;
39956;SDS011;48483;44.640;7.494;2023-03-23T03:30:03;30.85;;;23.23;;
39956;SDS011;48483;44.640;7.494;2023-03-23T03:32:34;35.15;;;26.05;;
39956;SDS011;48483;44.640;7.494;2023-03-23T03:35:08;33.88;;;24.92;;
39956;SDS011;48483;44.640;7.494;2023-03-23T03:37:35;31.10;;;23.88;;
39956;SDS011;48483;44.640;7.494;2023-03-23T03:40:08;31.58;;;23.88;;
39956;SDS011;48483;44.640;7.494;2023-03-23T03:42:40;30.60;;;24.02;;
39956;SDS011;48483;44.640;7.494;2023-03-23T03:45:09;30.85;;;23.92;;
39956;SDS011;48483;44.640;7.494;2023-03-23T03:47:39;31.38;;;23.33;;
39956;SDS011;48483;44.640;7.494;2023-03-23T03:50:10;35.55;;;26.58;;
39956;SDS011;48483;44.640;7.494;2023-03-23T03:52:38;32.38;;;23.73;;
39956;SDS011;48483;44.640;7.494;2023-03-23T03:55:07;34.90;;;24.40;;
39956;SDS011;48483;44.640;7.494;2023-03-23T03:57:35;32.47;;;23.88;;
39956;SDS011;48483;44.640;7.494;2023-03-23T04:00:06;35.33;;;25.97;;
39956;SDS011;48483;44.640;7.494;2023-03-23T04:02:41;31.00;;;23.83;;
39956;SDS011;48483;44.640;7.494;2023-03-23T04:05:09;34.15;;;24.58;;
39956;SDS011;48483;44.640;7.494;2023-03-23T04:07:38;31.37;;;24.27;;
39956;SDS011;48483;44.640;7.494;2023-03-23T04:10:08;31.75;;;23.02;;
39956;SDS011;48483;44.640;7.494;2023-03-23T04:12:38;32.53;;;25.63;;
39956;SDS011;48483;44.640;7.494;2023-03-23T04:15:34;30.48;;;25.15;;
39956;SDS011;48483;44.640;7.494;2023-03-23T04:18:02;32.78;;;24.15;;
39956;SDS011;48483;44.640;7.494;2023-03-23T04:20:32;33.28;;;24.67;;
39956;SDS011;48483;44.640;7.494;2023-03-23T04:23:01;33.97;;;25.38;;
39956;SDS011;48483;44.640;7.494;2023-03-23T04:25:29;32.10;;;24.60;;
39956;SDS011;48483;44.640;7.494;2023-03-23T04:27:59;34.75;;;25.27;;
39956;SDS011;48483;44.640;7.494;2023-03-23T04:30:31;34.45;;;26.50;;
39956;SDS011;48483;44.640;7.494;2023-03-23T04:33:06;32.90;;;27.15;;
39956;SDS011;48483;44.640;7.494;2023-03-23T04:35:34;34.60;;;26.52;;
39956;SDS011;48483;44.640;7.494;2023-03-23T04:38:17;33.58;;;26.92;;
39956;SDS011;48483;44.640;7.494;2023-03-23T04:40:51;35.00;;;27.45;;
39956;SDS011;48483;44.640;7.494;2023-03-23T04:43:44;33.90;;;25.27;;
39956;SDS011;48483;44.640;7.494;2023-03-23T04:46:20;29.92;;;23.63;;
39956;SDS011;48483;44.640;7.494;2023-03-23T04:48:50;30.50;;;24.33;;
39956;SDS011;48483;44.640;7.494;2023-03-23T04:53:50;33.28;;;25.10;;
39956;SDS011;48483;44.640;7.494;2023-03-23T04:56:18;33.47;;;24.67;;
39956;SDS011;48483;44.640;7.494;2023-03-23T04:58:45;33.28;;;25.52;;
39956;SDS011;48483;44.640;7.494;2023-03-23T05:01:28;35.00;;;26.25;;
39956;SDS011;48483;44.640;7.494;2023-03-23T05:04:15;33.20;;;25.75;;
39956;SDS011;48483;44.640;7.494;2023-03-23T05:06:47;32.97;;;25.05;;
39956;SDS011;48483;44.640;7.494;2023-03-23T05:09:21;36.33;;;26.83;;
39956;SDS011;48483;44.640;7.494;2023-03-23T05:11:48;38.80;;;25.92;;
39956;SDS011;48483;44.640;7.494;2023-03-23T05:14:15;35.85;;;27.25;;
39956;SDS011;48483;44.640;7.494;2023-03-23T05:16:45;42.33;;;24.65;;
39956;SDS011;48483;44.640;7.494;2023-03-23T05:19:15;38.63;;;25.92;;
39956;SDS011;48483;44.640;7.494;2023-03-23T05:21:42;45.72;;;27.40;;
39956;SDS011;48483;44.640;7.494;2023-03-23T05:24:12;32.25;;;25.95;;
39956;SDS011;48483;44.640;7.494;2023-03-23T05:26:40;38.08;;;26.25;;
39956;SDS011;48483;44.640;7.494;2023-03-23T05:29:15;36.38;;;26.52;;
39956;SDS011;48483;44.640;7.494;2023-03-23T05:31:52;32.50;;;26.75;;
39956;SDS011;48483;44.640;7.494;2023-03-23T05:34:21;38.72;;;29.15;;
39956;SDS011;48483;44.640;7.494;2023-03-23T05:36:55;34.38;;;26.92;;
39956;SDS011;48483;44.640;7.494;2023-03-23T05:39:45;38.42;;;29.70;;
39956;SDS011;48483;44.640;7.494;2023-03-23T05:42:44;38.80;;;28.90;;
39956;SDS011;48483;44.640;7.494;2023-03-23T05:45:24;37.77;;;30.30;;
39956;SDS011;48483;44.640;7.494;2023-03-23T05:47:52;41.22;;;30.88;;
39956;SDS011;48483;44.640;7.494;2023-03-23T05:50:20;35.50;;;30.95;;
39956;SDS011;48483;44.640;7.494;2023-03-23T05:52:48;40.55;;;31.75;;
39956;SDS011;48483;44.640;7.494;2023-03-23T05:55:17;38.17;;;32.10;;
39956;SDS011;48483;44.640;7.494;2023-03-23T05:57:51;39.10;;;30.95;;
39956;SDS011;48483;44.640;7.494;2023-03-23T06:00:25;39.40;;;29.48;;
39956;SDS011;48483;44.640;7.494;2023-03-23T06:03:03;38.90;;;28.92;;
39956;SDS011;48483;44.640;7.494;2023-03-23T06:05:41;39.25;;;30.20;;
39956;SDS011;48483;44.640;7.494;2023-03-23T06:08:10;42.53;;;31.63;;
39956;SDS011;48483;44.640;7.494;2023-03-23T06:10:39;36.85;;;28.08;;
39956;SDS011;48483;44.640;7.494;2023-03-23T06:13:05;41.28;;;27.95;;
39956;SDS011;48483;44.640;7.494;2023-03-23T06:15:54;40.15;;;28.75;;
39956;SDS011;48483;44.640;7.494;2023-03-23T06:18:49;36.95;;;28.05;;
39956;SDS011;48483;44.640;7.494;2023-03-23T06:21:25;36.65;;;27.88;;
39956;SDS011;48483;44.640;7.494;2023-03-23T06:23:55;36.58;;;27.75;;
39956;SDS011;48483;44.640;7.494;2023-03-23T06:26:29;36.85;;;27.85;;
39956;SDS011;48483;44.640;7.494;2023-03-23T06:29:00;43.10;;;31.17;;
39956;SDS011;48483;44.640;7.494;2023-03-23T06:31:31;48.33;;;33.13;;
39956;SDS011;48483;44.640;7.494;2023-03-23T06:34:01;37.42;;;31.40;;
39956;SDS011;48483;44.640;7.494;2023-03-23T06:36:58;43.70;;;32.60;;
39956;SDS011;48483;44.640;7.494;2023-03-23T06:39:34;43.03;;;32.05;;
39956;SDS011;48483;44.640;7.494;2023-03-23T06:42:39;41.22;;;31.77;;
39956;SDS011;48483;44.640;7.494;2023-03-23T06:45:29;45.08;;;32.75;;
39956;SDS011;48483;44.640;7.494;2023-03-23T06:48:35;47.00;;;31.63;;
39956;SDS011;48483;44.640;7.494;2023-03-23T06:51:04;41.67;;;30.33;;
39956;SDS011;48483;44.640;7.494;2023-03-23T06:53:33;41.42;;;32.35;;
39956;SDS011;48483;44.640;7.494;2023-03-23T06:56:00;41.45;;;32.13;;
39956;SDS011;48483;44.640;7.494;2023-03-23T06:58:30;42.17;;;32.90;;
39956;SDS011;48483;44.640;7.494;2023-03-23T07:00:57;38.53;;;30.15;;
39956;SDS011;48483;44.640;7.494;2023-03-23T07:03:30;40.45;;;31.23;;
39956;SDS011;48483;44.640;7.494;2023-03-23T07:05:58;51.95;;;35.50;;
39956;SDS011;48483;44.640;7.494;2023-03-23T07:08:29;45.53;;;32.45;;
39956;SDS011;48483;44.640;7.494;2023-03-23T07:10:56;46.47;;;32.90;;
39956;SDS011;48483;44.640;7.494;2023-03-23T07:13:27;44.42;;;33.58;;
39956;SDS011;48483;44.640;7.494;2023-03-23T07:15:59;40.75;;;33.08;;
39956;SDS011;48483;44.640;7.494;2023-03-23T07:18:27;43.13;;;32.35;;
39956;SDS011;48483;44.640;7.494;2023-03-23T07:20:56;44.17;;;33.53;;
39956;SDS011;48483;44.640;7.494;2023-03-23T07:23:28;44.35;;;33.25;;
39956;SDS011;48483;44.640;7.494;2023-03-23T07:26:08;47.50;;;33.72;;
39956;SDS011;48483;44.640;7.494;2023-03-23T07:28:42;47.60;;;35.15;;
39956;SDS011;48483;44.640;7.494;2023-03-23T07:31:29;46.22;;;33.83;;
39956;SDS011;48483;44.640;7.494;2023-03-23T07:33:56;45.33;;;34.47;;
39956;SDS011;48483;44.640;7.494;2023-03-23T07:36:30;41.15;;;32.60;;
39956;SDS011;48483;44.640;7.494;2023-03-23T07:38:57;45.20;;;33.13;;
39956;SDS011;48483;44.640;7.494;2023-03-23T07:41:25;42.10;;;30.75;;
39956;SDS011;48483;44.640;7.494;2023-03-23T07:43:53;40.97;;;30.20;;
39956;SDS011;48483;44.640;7.494;2023-03-23T07:49:12;40.97;;;30.27;;
39956;SDS011;48483;44.640;7.494;2023-03-23T07:51:44;37.97;;;29.92;;
39956;SDS011;48483;44.640;7.494;2023-03-23T07:54:13;39.80;;;31.70;;
39956;SDS011;48483;44.640;7.494;2023-03-23T07:56:58;40.42;;;30.00;;
39956;SDS011;48483;44.640;7.494;2023-03-23T07:59:29;40.88;;;32.30;;
39956;SDS011;48483;44.640;7.494;2023-03-23T08:01:59;38.28;;;31.45;;
39956;SDS011;48483;44.640;7.494;2023-03-23T08:04:47;39.00;;;30.52;;
39956;SDS011;48483;44.640;7.494;2023-03-23T08:07:14;39.47;;;30.35;;
39956;SDS011;48483;44.640;7.494;2023-03-23T08:09:51;36.63;;;29.58;;
39956;SDS011;48483;44.640;7.494;2023-03-23T08:12:39;39.35;;;30.90;;
39956;SDS011;48483;44.640;7.494;2023-03-23T08:15:33;38.88;;;31.00;;
39956;SDS011;48483;44.640;7.494;2023-03-23T08:18:07;42.72;;;32.28;;
39956;SDS011;48483;44.640;7.494;2023-03-23T08:21:00;41.90;;;32.72;;
39956;SDS011;48483;44.640;7.494;2023-03-23T08:23:33;39.08;;;30.98;;
39956;SDS011;48483;44.640;7.494;2023-03-23T08:26:00;39.55;;;33.70;;
39956;SDS011;48483;44.640;7.494;2023-03-23T08:28:45;41.15;;;32.97;;
39956;SDS011;48483;44.640;7.494;2023-03-23T08:31:31;45.17;;;34.75;;
39956;SDS011;48483;44.640;7.494;2023-03-23T08:34:01;42.25;;;34.55;;
39956;SDS011;48483;44.640;7.494;2023-03-23T08:36:31;40.25;;;33.75;;
39956;SDS011;48483;44.640;7.494;2023-03-23T08:39:17;41.60;;;35.05;;
39956;SDS011;48483;44.640;7.494;2023-03-23T08:41:53;44.13;;;34.22;;
39956;SDS011;48483;44.640;7.494;2023-03-23T08:44:46;44.25;;;34.53;;
39956;SDS011;48483;44.640;7.494;2023-03-23T08:47:36;43.83;;;37.60;;
39956;SDS011;48483;44.640;7.494;2023-03-23T08:50:09;48.42;;;38.35;;
39956;SDS011;48483;44.640;7.494;2023-03-23T08:52:56;43.83;;;38.33;;
39956;SDS011;48483;44.640;7.494;2023-03-23T08:55:42;45.25;;;38.08;;
39956;SDS011;48483;44.640;7.494;2023-03-23T08:58:32;47.75;;;36.70;;
39956;SDS011;48483;44.640;7.494;2023-03-23T09:00:59;45.88;;;39.65;;
39956;SDS011;48483;44.640;7.494;2023-03-23T09:03:41;46.45;;;38.70;;
39956;SDS011;48483;44.640;7.494;2023-03-23T09:06:33;48.78;;;39.65;;
39956;SDS011;48483;44.640;7.494;2023-03-23T09:09:01;47.53;;;40.58;;
39956;SDS011;48483;44.640;7.494;2023-03-23T09:11:32;51.38;;;39.75;;
39956;SDS011;48483;44.640;7.494;2023-03-23T09:13:59;49.00;;;38.20;;
39956;SDS011;48483;44.640;7.494;2023-03-23T09:16:27;48.53;;;39.13;;
39956;SDS011;48483;44.640;7.494;2023-03-23T09:18:54;42.50;;;35.05;;
39956;SDS011;48483;44.640;7.494;2023-03-23T09:21:22;47.90;;;36.50;;
39956;SDS011;48483;44.640;7.494;2023-03-23T09:23:51;40.08;;;34.33;;
39956;SDS011;48483;44.640;7.494;2023-03-23T09:26:17;43.33;;;34.45;;
39956;SDS011;48483;44.640;7.494;2023-03-23T09:28:44;37.42;;;31.98;;
39956;SDS011;48483;44.640;7.494;2023-03-23T09:31:12;35.25;;;29.10;;
39956;SDS011;48483;44.640;7.494;2023-03-23T09:33:39;39.65;;;29.75;;
39956;SDS011;48483;44.640;7.494;2023-03-23T09:36:05;35.13;;;27.63;;
39956;SDS011;48483;44.640;7.494;2023-03-23T09:38:37;35.75;;;28.33;;
39956;SDS011;48483;44.640;7.494;2023-03-23T09:41:07;35.72;;;29.90;;
39956;SDS011;48483;44.640;7.494;2023-03-23T09:43:52;35.80;;;29.67;;
39956;SDS011;48483;44.640;7.494;2023-03-23T09:46:29;42.10;;;32.47;;
39956;SDS011;48483;44.640;7.494;2023-03-23T09:49:07;37.17;;;31.08;;
39956;SDS011;48483;44.640;7.494;2023-03-23T09:51:39;40.38;;;32.00;;
39956;SDS011;48483;44.640;7.494;2023-03-23T09:54:10;32.90;;;29.15;;
39956;SDS011;48483;44.640;7.494;2023-03-23T09:56:44;44.80;;;29.13;;
39956;SDS011;48483;44.640;7.494;2023-03-23T09:59:13;35.67;;;29.40;;
39956;SDS011;48483;44.640;7.494;2023-03-23T10:01:46;37.45;;;30.73;;
39956;SDS011;48483;44.640;7.494;2023-03-23T10:04:16;37.92;;;29.23;;
39956;SDS011;48483;44.640;7.494;2023-03-23T10:06:51;36.10;;;30.83;;
39956;SDS011;48483;44.640;7.494;2023-03-23T10:09:19;35.97;;;28.45;;
39956;SDS011;48483;44.640;7.494;2023-03-23T10:11:50;34.03;;;27.20;;
39956;SDS011;48483;44.640;7.494;2023-03-23T10:14:29;30.98;;;25.38;;
39956;SDS011;48483;44.640;7.494;2023-03-23T10:17:04;30.58;;;26.35;;
39956;SDS011;48483;44.640;7.494;2023-03-23T10:19:41;33.60;;;28.15;;
39956;SDS011;48483;44.640;7.494;2023-03-23T10:22:14;34.65;;;29.83;;
39956;SDS011;48483;44.640;7.494;2023-03-23T10:24:45;35.00;;;29.90;;
39956;SDS011;48483;44.640;7.494;2023-03-23T10:27:22;37.03;;;28.88;;
39956;SDS011;48483;44.640;7.494;2023-03-23T10:29:53;36.00;;;29.83;;
39956;SDS011;48483;44.640;7.494;2023-03-23T10:32:36;36.58;;;28.50;;
39956;SDS011;48483;44.640;7.494;2023-03-23T10:35:09;34.55;;;27.33;;
39956;SDS011;48483;44.640;7.494;2023-03-23T10:37:41;30.25;;;25.95;;
39956;SDS011;48483;44.640;7.494;2023-03-23T10:40:13;30.63;;;25.58;;
39956;SDS011;48483;44.640;7.494;2023-03-23T10:42:45;29.33;;;25.67;;
39956;SDS011;48483;44.640;7.494;2023-03-23T10:45:15;32.83;;;27.13;;
39956;SDS011;48483;44.640;7.494;2023-03-23T10:47:46;36.17;;;25.42;;
39956;SDS011;48483;44.640;7.494;2023-03-23T10:50:18;32.70;;;26.23;;
39956;SDS011;48483;44.640;7.494;2023-03-23T10:52:50;33.20;;;26.25;;
39956;SDS011;48483;44.640;7.494;2023-03-23T10:55:20;33.72;;;26.45;;
39956;SDS011;48483;44.640;7.494;2023-03-23T10:57:59;31.33;;;23.87;;
39956;SDS011;48483;44.640;7.494;2023-03-23T11:00:27;31.90;;;23.30;;
39956;SDS011;48483;44.640;7.494;2023-03-23T11:02:58;28.77;;;23.38;;
39956;SDS011;48483;44.640;7.494;2023-03-23T11:05:35;29.30;;;24.35;;
39956;SDS011;48483;44.640;7.494;2023-03-23T11:08:04;32.50;;;24.60;;
39956;SDS011;48483;44.640;7.494;2023-03-23T11:10:39;32.90;;;24.88;;
39956;SDS011;48483;44.640;7.494;2023-03-23T11:13:12;30.48;;;24.90;;
39956;SDS011;48483;44.640;7.494;2023-03-23T11:15:40;31.85;;;24.35;;
39956;SDS011;48483;44.640;7.494;2023-03-23T11:18:09;32.03;;;23.58;;
39956;SDS011;48483;44.640;7.494;2023-03-23T11:20:37;28.77;;;24.80;;
39956;SDS011;48483;44.640;7.494;2023-03-23T11:23:09;29.45;;;22.85;;
39956;SDS011;48483;44.640;7.494;2023-03-23T11:25:55;29.35;;;22.52;;
39956;SDS011;48483;44.640;7.494;2023-03-23T11:28:27;28.60;;;21.77;;
39956;SDS011;48483;44.640;7.494;2023-03-23T11:30:57;30.65;;;24.25;;
39956;SDS011;48483;44.640;7.494;2023-03-23T11:33:28;27.00;;;21.20;;
39956;SDS011;48483;44.640;7.494;2023-03-23T11:35:56;29.37;;;19.83;;
39956;SDS011;48483;44.640;7.494;2023-03-23T11:38:23;28.25;;;21.90;;
39956;SDS011;48483;44.640;7.494;2023-03-23T11:40:54;25.52;;;21.35;;
39956;SDS011;48483;44.640;7.494;2023-03-23T11:43:21;26.30;;;20.35;;
39956;SDS011;48483;44.640;7.494;2023-03-23T11:45:54;39.00;;;30.10;;
39956;SDS011;48483;44.640;7.494;2023-03-23T11:48:29;31.90;;;23.00;;
39956;SDS011;48483;44.640;7.494;2023-03-23T11:51:05;27.33;;;21.15;;
39956;SDS011;48483;44.640;7.494;2023-03-23T11:53:45;29.17;;;21.63;;
39956;SDS011;48483;44.640;7.494;2023-03-23T11:56:19;27.63;;;23.75;;
39956;SDS011;48483;44.640;7.494;2023-03-23T11:58:51;27.20;;;21.45;;
39956;SDS011;48483;44.640;7.494;2023-03-23T12:01:24;28.60;;;25.15;;
39956;SDS011;48483;44.640;7.494;2023-03-23T12:04:10;31.17;;;26.02;;
39956;SDS011;48483;44.640;7.494;2023-03-23T12:06:56;40.85;;;32.95;;
39956;SDS011;48483;44.640;7.494;2023-03-23T12:09:35;39.03;;;31.85;;
39956;SDS011;48483;44.640;7.494;2023-03-23T12:12:11;37.63;;;30.48;;
39956;SDS011;48483;44.640;7.494;2023-03-23T12:14:47;34.65;;;28.98;;
39956;SDS011;48483;44.640;7.494;2023-03-23T12:17:23;41.38;;;31.92;;
39956;SDS011;48483;44.640;7.494;2023-03-23T12:20:01;39.00;;;32.80;;
39956;SDS011;48483;44.640;7.494;2023-03-23T12:22:42;36.95;;;31.48;;
39956;SDS011;48483;44.640;7.494;2023-03-23T12:25:21;37.08;;;29.92;;
39956;SDS011;48483;44.640;7.494;2023-03-23T12:28:06;32.03;;;28.50;;
39956;SDS011;48483;44.640;7.494;2023-03-23T12:30:45;33.50;;;29.13;;
39956;SDS011;48483;44.640;7.494;2023-03-23T12:33:20;35.22;;;29.15;;
39956;SDS011;48483;44.640;7.494;2023-03-23T12:35:58;36.50;;;30.23;;
39956;SDS011;48483;44.640;7.494;2023-03-23T12:41:31;35.17;;;29.85;;
39956;SDS011;48483;44.640;7.494;2023-03-23T12:44:04;40.00;;;30.33;;
39956;SDS011;48483;44.640;7.494;2023-03-23T12:46:45;30.92;;;26.38;;
39956;SDS011;48483;44.640;7.494;2023-03-23T12:49:32;31.42;;;28.00;;
39956;SDS011;48483;44.640;7.494;2023-03-23T12:52:04;31.48;;;26.85;;
39956;SDS011;48483;44.640;7.494;2023-03-23T12:54:40;34.10;;;28.98;;
39956;SDS011;48483;44.640;7.494;2023-03-23T12:57:16;32.40;;;28.30;;
39956;SDS011;48483;44.640;7.494;2023-03-23T12:59:49;35.70;;;27.95;;
39956;SDS011;48483;44.640;7.494;2023-03-23T13:02:27;33.50;;;29.95;;
39956;SDS011;48483;44.640;7.494;2023-03-23T13:04:59;32.75;;;29.27;;
39956;SDS011;48483;44.640;7.494;2023-03-23T13:07:32;35.20;;;28.45;;
39956;SDS011;48483;44.640;7.494;2023-03-23T13:10:03;35.60;;;31.38;;
39956;SDS011;48483;44.640;7.494;2023-03-23T13:12:32;38.33;;;32.50;;
39956;SDS011;48483;44.640;7.494;2023-03-23T13:15:03;36.28;;;30.42;;
39956;SDS011;48483;44.640;7.494;2023-03-23T13:17:42;37.90;;;29.33;;
39956;SDS011;48483;44.640;7.494;2023-03-23T13:20:18;31.10;;;27.73;;
39956;SDS011;48483;44.640;7.494;2023-03-23T13:23:05;32.47;;;29.05;;
39956;SDS011;48483;44.640;7.494;2023-03-23T13:25:49;29.88;;;26.00;;
39956;SDS011;48483;44.640;7.494;2023-03-23T13:28:20;30.83;;;27.10;;
39956;SDS011;48483;44.640;7.494;2023-03-23T13:30:55;29.65;;;26.42;;
39956;SDS011;48483;44.640;7.494;2023-03-23T13:33:23;27.25;;;24.50;;
39956;SDS011;48483;44.640;7.494;2023-03-23T13:35:51;27.10;;;24.30;;
39956;SDS011;48483;44.640;7.494;2023-03-23T13:38:19;28.08;;;25.17;;
39956;SDS011;48483;44.640;7.494;2023-03-23T13:40:50;31.27;;;25.58;;
39956;SDS011;48483;44.640;7.494;2023-03-23T13:43:29;27.73;;;23.20;;
39956;SDS011;48483;44.640;7.494;2023-03-23T13:46:06;27.25;;;24.10;;
39956;SDS011;48483;44.640;7.494;2023-03-23T13:48:43;28.83;;;23.90;;
39956;SDS011;48483;44.640;7.494;2023-03-23T13:51:25;26.13;;;23.17;;
39956;SDS011;48483;44.640;7.494;2023-03-23T13:56:56;25.58;;;22.83;;
39956;SDS011;48483;44.640;7.494;2023-03-23T13:59:31;24.95;;;22.20;;
39956;SDS011;48483;44.640;7.494;2023-03-23T14:05:11;26.85;;;22.88;;
39956;SDS011;48483;44.640;7.494;2023-03-23T14:07:56;25.30;;;22.00;;
39956;SDS011;48483;44.640;7.494;2023-03-23T14:10:33;24.63;;;21.55;;
39956;SDS011;48483;44.640;7.494;2023-03-23T14:13:02;21.60;;;18.17;;
39956;SDS011;48483;44.640;7.494;2023-03-23T14:15:31;21.65;;;19.30;;
39956;SDS011;48483;44.640;7.494;2023-03-23T14:18:11;20.95;;;18.73;;
39956;SDS011;48483;44.640;7.494;2023-03-23T14:20:42;24.55;;;20.95;;
39956;SDS011;48483;44.640;7.494;2023-03-23T14:23:16;25.30;;;20.60;;
39956;SDS011;48483;44.640;7.494;2023-03-23T14:25:44;24.70;;;20.63;;
39956;SDS011;48483;44.640;7.494;2023-03-23T14:28:20;24.00;;;21.45;;
39956;SDS011;48483;44.640;7.494;2023-03-23T14:30:48;24.08;;;20.77;;
39956;SDS011;48483;44.640;7.494;2023-03-23T14:33:20;25.08;;;22.15;;
39956;SDS011;48483;44.640;7.494;2023-03-23T14:35:47;23.70;;;20.25;;
39956;SDS011;48483;44.640;7.494;2023-03-23T14:38:17;23.73;;;20.92;;
39956;SDS011;48483;44.640;7.494;2023-03-23T14:40:49;23.10;;;19.98;;
39956;SDS011;48483;44.640;7.494;2023-03-23T14:43:16;23.63;;;21.13;;
39956;SDS011;48483;44.640;7.494;2023-03-23T14:45:46;21.98;;;19.65;;
39956;SDS011;48483;44.640;7.494;2023-03-23T14:48:18;24.15;;;20.25;;
39956;SDS011;48483;44.640;7.494;2023-03-23T14:50:50;23.88;;;21.48;;
39956;SDS011;48483;44.640;7.494;2023-03-23T14:53:21;25.05;;;21.98;;
39956;SDS011;48483;44.640;7.494;2023-03-23T14:55:49;22.92;;;19.75;;
39956;SDS011;48483;44.640;7.494;2023-03-23T14:58:18;24.40;;;20.50;;
39956;SDS011;48483;44.640;7.494;2023-03-23T15:00:48;23.42;;;20.27;;
39956;SDS011;48483;44.640;7.494;2023-03-23T15:03:18;21.33;;;19.05;;
39956;SDS011;48483;44.640;7.494;2023-03-23T15:05:46;24.65;;;21.17;;
39956;SDS011;48483;44.640;7.494;2023-03-23T15:08:16;23.70;;;20.27;;
39956;SDS011;48483;44.640;7.494;2023-03-23T15:10:52;21.85;;;19.52;;
39956;SDS011;48483;44.640;7.494;2023-03-23T15:13:20;23.13;;;20.23;;
39956;SDS011;48483;44.640;7.494;2023-03-23T15:15:47;20.85;;;18.25;;
39956;SDS011;48483;44.640;7.494;2023-03-23T15:18:30;21.08;;;18.80;;
39956;SDS011;48483;44.640;7.494;2023-03-23T15:21:07;21.58;;;18.77;;
39956;SDS011;48483;44.640;7.494;2023-03-23T15:23:42;22.85;;;20.15;;